sensor_id;sensor_type;location;lat;lon;timestamp;P1;durP1;ratioP1;P2;durP2;ratioP2
7833;SDS011;3962;42.696;23.354;2023-07-31T00:01:55;5.47;;;5.27;;
7833;SDS011;3962;42.696;23.354;2023-07-31T00:04:22;5.20;;;5.00;;
7833;SDS011;3962;42.696;23.354;2023-07-31T00:06:48;5.60;;;5.40;;
7833;SDS011;3962;42.696;23.354;2023-07-31T00:09:15;5.00;;;4.80;;
7833;SDS011;3962;42.696;23.354;2023-07-31T00:11:43;4.90;;;4.70;;
7833;SDS011;3962;42.696;23.354;2023-07-31T00:14:10;5.40;;;5.20;;
7833;SDS011;3962;42.696;23.354;2023-07-31T00:16:37;5.30;;;5.10;;
7833;SDS011;3962;42.696;23.354;2023-07-31T00:19:04;5.03;;;4.83;;
7833;SDS011;3962;42.696;23.354;2023-07-31T00:21:30;5.53;;;5.33;;
7833;SDS011;3962;42.696;23.354;2023-07-31T00:23:57;4.83;;;4.63;;
7833;SDS011;3962;42.696;23.354;2023-07-31T00:26:24;4.87;;;4.67;;
7833;SDS011;3962;42.696;23.354;2023-07-31T00:28:52;5.03;;;4.83;;
7833;SDS011;3962;42.696;23.354;2023-07-31T00:31:19;5.20;;;5.00;;
7833;SDS011;3962;42.696;23.354;2023-07-31T00:33:46;5.23;;;5.03;;
7833;SDS011;3962;42.696;23.354;2023-07-31T00:36:12;5.53;;;5.33;;
7833;SDS011;3962;42.696;23.354;2023-07-31T00:38:39;4.43;;;4.23;;
7833;SDS011;3962;42.696;23.354;2023-07-31T00:41:06;5.53;;;5.33;;
7833;SDS011;3962;42.696;23.354;2023-07-31T00:43:33;5.33;;;5.13;;
7833;SDS011;3962;42.696;23.354;2023-07-31T00:46:01;5.43;;;5.23;;
7833;SDS011;3962;42.696;23.354;2023-07-31T00:48:28;5.10;;;4.90;;
7833;SDS011;3962;42.696;23.354;2023-07-31T00:50:55;5.00;;;4.80;;
7833;SDS011;3962;42.696;23.354;2023-07-31T00:53:21;6.10;;;5.90;;
7833;SDS011;3962;42.696;23.354;2023-07-31T00:55:50;6.00;;;5.80;;
7833;SDS011;3962;42.696;23.354;2023-07-31T00:58:19;5.63;;;5.43;;
7833;SDS011;3962;42.696;23.354;2023-07-31T01:00:46;6.10;;;5.80;;
7833;SDS011;3962;42.696;23.354;2023-07-31T01:03:14;5.53;;;5.33;;
7833;SDS011;3962;42.696;23.354;2023-07-31T01:05:43;5.37;;;5.17;;
7833;SDS011;3962;42.696;23.354;2023-07-31T01:08:21;4.83;;;4.63;;
7833;SDS011;3962;42.696;23.354;2023-07-31T01:10:53;5.63;;;5.43;;
7833;SDS011;3962;42.696;23.354;2023-07-31T01:13:24;5.67;;;5.47;;
7833;SDS011;3962;42.696;23.354;2023-07-31T01:15:51;5.20;;;5.00;;
7833;SDS011;3962;42.696;23.354;2023-07-31T01:18:20;5.30;;;5.10;;
7833;SDS011;3962;42.696;23.354;2023-07-31T01:20:47;4.80;;;4.60;;
7833;SDS011;3962;42.696;23.354;2023-07-31T01:23:24;5.37;;;5.17;;
7833;SDS011;3962;42.696;23.354;2023-07-31T01:26:05;6.17;;;5.93;;
7833;SDS011;3962;42.696;23.354;2023-07-31T01:28:40;5.20;;;5.00;;
7833;SDS011;3962;42.696;23.354;2023-07-31T01:31:14;5.93;;;5.73;;
7833;SDS011;3962;42.696;23.354;2023-07-31T01:33:46;5.47;;;5.27;;
7833;SDS011;3962;42.696;23.354;2023-07-31T01:36:14;5.53;;;5.33;;
7833;SDS011;3962;42.696;23.354;2023-07-31T01:38:41;5.60;;;5.40;;
7833;SDS011;3962;42.696;23.354;2023-07-31T01:41:09;5.60;;;5.40;;
7833;SDS011;3962;42.696;23.354;2023-07-31T01:43:36;5.30;;;5.10;;
7833;SDS011;3962;42.696;23.354;2023-07-31T01:46:03;5.40;;;5.20;;
7833;SDS011;3962;42.696;23.354;2023-07-31T01:48:30;5.70;;;5.50;;
7833;SDS011;3962;42.696;23.354;2023-07-31T01:51:00;6.37;;;5.97;;
7833;SDS011;3962;42.696;23.354;2023-07-31T01:53:27;6.47;;;6.23;;
7833;SDS011;3962;42.696;23.354;2023-07-31T01:55:54;5.27;;;5.07;;
7833;SDS011;3962;42.696;23.354;2023-07-31T01:58:22;5.63;;;5.43;;
7833;SDS011;3962;42.696;23.354;2023-07-31T02:00:49;6.53;;;6.23;;
7833;SDS011;3962;42.696;23.354;2023-07-31T02:03:16;5.77;;;5.57;;
7833;SDS011;3962;42.696;23.354;2023-07-31T02:05:46;6.77;;;6.47;;
7833;SDS011;3962;42.696;23.354;2023-07-31T02:08:14;5.67;;;5.47;;
7833;SDS011;3962;42.696;23.354;2023-07-31T02:10:41;5.70;;;5.50;;
7833;SDS011;3962;42.696;23.354;2023-07-31T02:13:08;6.33;;;6.03;;
7833;SDS011;3962;42.696;23.354;2023-07-31T02:15:36;6.53;;;6.23;;
7833;SDS011;3962;42.696;23.354;2023-07-31T02:18:03;7.00;;;6.70;;
7833;SDS011;3962;42.696;23.354;2023-07-31T02:20:33;5.20;;;5.00;;
7833;SDS011;3962;42.696;23.354;2023-07-31T02:23:00;6.83;;;6.53;;
7833;SDS011;3962;42.696;23.354;2023-07-31T02:25:27;6.40;;;6.10;;
7833;SDS011;3962;42.696;23.354;2023-07-31T02:27:54;6.43;;;6.13;;
7833;SDS011;3962;42.696;23.354;2023-07-31T02:30:20;6.00;;;5.80;;
7833;SDS011;3962;42.696;23.354;2023-07-31T02:32:48;7.50;;;7.20;;
7833;SDS011;3962;42.696;23.354;2023-07-31T02:35:15;6.40;;;6.10;;
7833;SDS011;3962;42.696;23.354;2023-07-31T02:37:43;5.90;;;5.70;;
7833;SDS011;3962;42.696;23.354;2023-07-31T02:40:11;5.63;;;5.43;;
7833;SDS011;3962;42.696;23.354;2023-07-31T02:42:38;5.43;;;5.23;;
7833;SDS011;3962;42.696;23.354;2023-07-31T02:45:05;5.90;;;5.60;;
7833;SDS011;3962;42.696;23.354;2023-07-31T02:47:33;5.70;;;5.50;;
7833;SDS011;3962;42.696;23.354;2023-07-31T02:50:01;5.93;;;5.73;;
7833;SDS011;3962;42.696;23.354;2023-07-31T02:52:28;5.67;;;5.47;;
7833;SDS011;3962;42.696;23.354;2023-07-31T02:54:54;6.17;;;5.87;;
7833;SDS011;3962;42.696;23.354;2023-07-31T02:57:21;6.00;;;5.80;;
7833;SDS011;3962;42.696;23.354;2023-07-31T02:59:48;6.27;;;6.07;;
7833;SDS011;3962;42.696;23.354;2023-07-31T03:02:15;6.50;;;6.20;;
7833;SDS011;3962;42.696;23.354;2023-07-31T03:04:42;7.30;;;7.00;;
7833;SDS011;3962;42.696;23.354;2023-07-31T03:07:10;5.60;;;5.40;;
7833;SDS011;3962;42.696;23.354;2023-07-31T03:09:37;6.33;;;6.03;;
7833;SDS011;3962;42.696;23.354;2023-07-31T03:12:04;5.33;;;5.13;;
7833;SDS011;3962;42.696;23.354;2023-07-31T03:14:31;5.77;;;5.57;;
7833;SDS011;3962;42.696;23.354;2023-07-31T03:16:58;6.23;;;5.93;;
7833;SDS011;3962;42.696;23.354;2023-07-31T03:19:26;5.97;;;5.77;;
7833;SDS011;3962;42.696;23.354;2023-07-31T03:21:52;6.43;;;6.17;;
7833;SDS011;3962;42.696;23.354;2023-07-31T03:24:20;6.93;;;6.63;;
7833;SDS011;3962;42.696;23.354;2023-07-31T03:26:47;5.87;;;5.67;;
7833;SDS011;3962;42.696;23.354;2023-07-31T03:29:14;5.83;;;5.63;;
7833;SDS011;3962;42.696;23.354;2023-07-31T03:31:41;5.10;;;4.90;;
7833;SDS011;3962;42.696;23.354;2023-07-31T03:34:07;5.97;;;5.70;;
7833;SDS011;3962;42.696;23.354;2023-07-31T03:36:34;7.00;;;6.70;;
7833;SDS011;3962;42.696;23.354;2023-07-31T03:39:01;6.13;;;5.87;;
7833;SDS011;3962;42.696;23.354;2023-07-31T03:41:30;5.60;;;5.40;;
7833;SDS011;3962;42.696;23.354;2023-07-31T03:43:56;7.30;;;7.00;;
7833;SDS011;3962;42.696;23.354;2023-07-31T03:46:23;5.77;;;5.57;;
7833;SDS011;3962;42.696;23.354;2023-07-31T03:48:50;5.97;;;5.77;;
7833;SDS011;3962;42.696;23.354;2023-07-31T03:51:17;5.63;;;5.43;;
7833;SDS011;3962;42.696;23.354;2023-07-31T03:53:44;6.83;;;6.53;;
7833;SDS011;3962;42.696;23.354;2023-07-31T03:56:11;7.27;;;6.97;;
7833;SDS011;3962;42.696;23.354;2023-07-31T03:58:40;6.60;;;6.30;;
7833;SDS011;3962;42.696;23.354;2023-07-31T04:01:06;6.37;;;6.07;;
7833;SDS011;3962;42.696;23.354;2023-07-31T04:03:33;6.53;;;6.23;;
7833;SDS011;3962;42.696;23.354;2023-07-31T04:06:00;6.70;;;6.40;;
7833;SDS011;3962;42.696;23.354;2023-07-31T04:08:27;6.87;;;6.57;;
7833;SDS011;3962;42.696;23.354;2023-07-31T04:10:53;6.57;;;6.27;;
7833;SDS011;3962;42.696;23.354;2023-07-31T04:13:21;6.93;;;6.63;;
7833;SDS011;3962;42.696;23.354;2023-07-31T04:15:50;6.73;;;6.43;;
7833;SDS011;3962;42.696;23.354;2023-07-31T04:18:17;7.17;;;6.87;;
7833;SDS011;3962;42.696;23.354;2023-07-31T04:20:44;7.27;;;6.97;;
7833;SDS011;3962;42.696;23.354;2023-07-31T04:23:10;6.60;;;6.30;;
7833;SDS011;3962;42.696;23.354;2023-07-31T04:25:37;7.07;;;6.77;;
7833;SDS011;3962;42.696;23.354;2023-07-31T04:28:04;6.53;;;6.23;;
7833;SDS011;3962;42.696;23.354;2023-07-31T04:30:31;6.20;;;5.93;;
7833;SDS011;3962;42.696;23.354;2023-07-31T04:32:59;6.70;;;6.40;;
7833;SDS011;3962;42.696;23.354;2023-07-31T04:35:26;6.17;;;5.97;;
7833;SDS011;3962;42.696;23.354;2023-07-31T04:37:53;7.50;;;7.20;;
7833;SDS011;3962;42.696;23.354;2023-07-31T04:40:20;7.60;;;7.30;;
7833;SDS011;3962;42.696;23.354;2023-07-31T04:42:47;6.70;;;6.40;;
7833;SDS011;3962;42.696;23.354;2023-07-31T04:45:14;6.63;;;6.33;;
7833;SDS011;3962;42.696;23.354;2023-07-31T04:47:41;7.23;;;6.93;;
7833;SDS011;3962;42.696;23.354;2023-07-31T04:50:09;7.73;;;7.43;;
7833;SDS011;3962;42.696;23.354;2023-07-31T04:52:36;5.50;;;5.30;;
7833;SDS011;3962;42.696;23.354;2023-07-31T04:55:03;6.63;;;6.33;;
7833;SDS011;3962;42.696;23.354;2023-07-31T04:57:30;6.43;;;6.13;;
7833;SDS011;3962;42.696;23.354;2023-07-31T04:59:57;6.57;;;6.27;;
7833;SDS011;3962;42.696;23.354;2023-07-31T05:02:23;7.03;;;6.73;;
7833;SDS011;3962;42.696;23.354;2023-07-31T05:04:50;6.80;;;6.50;;
7833;SDS011;3962;42.696;23.354;2023-07-31T05:07:19;7.20;;;6.90;;
7833;SDS011;3962;42.696;23.354;2023-07-31T05:09:45;8.63;;;8.23;;
7833;SDS011;3962;42.696;23.354;2023-07-31T05:12:12;5.67;;;5.47;;
7833;SDS011;3962;42.696;23.354;2023-07-31T05:14:39;6.63;;;6.33;;
7833;SDS011;3962;42.696;23.354;2023-07-31T05:17:06;5.30;;;5.10;;
7833;SDS011;3962;42.696;23.354;2023-07-31T05:19:32;11.47;;;6.43;;
7833;SDS011;3962;42.696;23.354;2023-07-31T05:21:59;7.00;;;6.70;;
7833;SDS011;3962;42.696;23.354;2023-07-31T05:24:28;7.13;;;6.83;;
7833;SDS011;3962;42.696;23.354;2023-07-31T05:26:59;6.50;;;6.20;;
7833;SDS011;3962;42.696;23.354;2023-07-31T05:29:28;6.03;;;5.83;;
7833;SDS011;3962;42.696;23.354;2023-07-31T05:31:55;6.73;;;6.43;;
7833;SDS011;3962;42.696;23.354;2023-07-31T05:34:22;6.47;;;6.17;;
7833;SDS011;3962;42.696;23.354;2023-07-31T05:36:49;5.87;;;5.67;;
7833;SDS011;3962;42.696;23.354;2023-07-31T05:39:16;6.87;;;6.57;;
7833;SDS011;3962;42.696;23.354;2023-07-31T05:41:47;6.37;;;6.07;;
7833;SDS011;3962;42.696;23.354;2023-07-31T05:44:13;5.93;;;5.73;;
7833;SDS011;3962;42.696;23.354;2023-07-31T05:46:40;5.57;;;5.37;;
7833;SDS011;3962;42.696;23.354;2023-07-31T05:49:07;6.03;;;5.83;;
7833;SDS011;3962;42.696;23.354;2023-07-31T05:51:34;6.27;;;5.97;;
7833;SDS011;3962;42.696;23.354;2023-07-31T05:54:01;5.50;;;5.30;;
7833;SDS011;3962;42.696;23.354;2023-07-31T05:56:28;6.50;;;6.10;;
7833;SDS011;3962;42.696;23.354;2023-07-31T05:58:56;6.60;;;6.30;;
7833;SDS011;3962;42.696;23.354;2023-07-31T06:01:23;7.00;;;6.70;;
7833;SDS011;3962;42.696;23.354;2023-07-31T06:03:50;5.17;;;4.97;;
7833;SDS011;3962;42.696;23.354;2023-07-31T06:06:17;5.57;;;5.37;;
7833;SDS011;3962;42.696;23.354;2023-07-31T06:08:45;6.57;;;6.27;;
7833;SDS011;3962;42.696;23.354;2023-07-31T06:11:12;5.80;;;5.50;;
7833;SDS011;3962;42.696;23.354;2023-07-31T06:13:38;6.93;;;6.63;;
7833;SDS011;3962;42.696;23.354;2023-07-31T06:16:08;6.30;;;6.10;;
7833;SDS011;3962;42.696;23.354;2023-07-31T06:18:35;5.20;;;5.00;;
7833;SDS011;3962;42.696;23.354;2023-07-31T06:21:02;6.47;;;6.17;;
7833;SDS011;3962;42.696;23.354;2023-07-31T06:23:29;5.80;;;5.57;;
7833;SDS011;3962;42.696;23.354;2023-07-31T06:25:55;6.37;;;6.07;;
7833;SDS011;3962;42.696;23.354;2023-07-31T06:28:26;7.40;;;6.70;;
7833;SDS011;3962;42.696;23.354;2023-07-31T06:30:54;5.80;;;5.60;;
7833;SDS011;3962;42.696;23.354;2023-07-31T06:33:22;6.27;;;5.97;;
7833;SDS011;3962;42.696;23.354;2023-07-31T06:35:49;5.97;;;5.67;;
7833;SDS011;3962;42.696;23.354;2023-07-31T06:38:18;5.43;;;5.13;;
7833;SDS011;3962;42.696;23.354;2023-07-31T06:40:45;5.80;;;5.50;;
7833;SDS011;3962;42.696;23.354;2023-07-31T06:43:12;5.30;;;5.03;;
7833;SDS011;3962;42.696;23.354;2023-07-31T06:45:38;5.30;;;5.10;;
7833;SDS011;3962;42.696;23.354;2023-07-31T06:48:05;5.37;;;5.17;;
7833;SDS011;3962;42.696;23.354;2023-07-31T06:50:33;6.70;;;6.40;;
7833;SDS011;3962;42.696;23.354;2023-07-31T06:53:00;5.53;;;5.33;;
7833;SDS011;3962;42.696;23.354;2023-07-31T06:55:27;5.33;;;5.03;;
7833;SDS011;3962;42.696;23.354;2023-07-31T06:57:55;6.40;;;6.10;;
7833;SDS011;3962;42.696;23.354;2023-07-31T07:00:22;5.53;;;5.33;;
7833;SDS011;3962;42.696;23.354;2023-07-31T07:02:49;5.87;;;5.60;;
7833;SDS011;3962;42.696;23.354;2023-07-31T07:05:16;5.60;;;5.40;;
7833;SDS011;3962;42.696;23.354;2023-07-31T07:07:45;6.53;;;6.23;;
7833;SDS011;3962;42.696;23.354;2023-07-31T07:10:12;5.47;;;5.27;;
7833;SDS011;3962;42.696;23.354;2023-07-31T07:12:39;5.30;;;5.10;;
7833;SDS011;3962;42.696;23.354;2023-07-31T07:15:06;5.10;;;4.90;;
7833;SDS011;3962;42.696;23.354;2023-07-31T07:17:35;6.07;;;5.77;;
7833;SDS011;3962;42.696;23.354;2023-07-31T07:20:02;5.33;;;5.13;;
7833;SDS011;3962;42.696;23.354;2023-07-31T07:22:31;5.20;;;4.90;;
7833;SDS011;3962;42.696;23.354;2023-07-31T07:25:00;5.20;;;5.00;;
7833;SDS011;3962;42.696;23.354;2023-07-31T07:27:33;5.67;;;5.47;;
7833;SDS011;3962;42.696;23.354;2023-07-31T07:30:00;4.40;;;4.20;;
7833;SDS011;3962;42.696;23.354;2023-07-31T07:32:27;5.40;;;5.20;;
7833;SDS011;3962;42.696;23.354;2023-07-31T07:34:54;4.23;;;4.07;;
7833;SDS011;3962;42.696;23.354;2023-07-31T07:37:21;5.03;;;4.83;;
7833;SDS011;3962;42.696;23.354;2023-07-31T07:39:48;4.40;;;4.20;;
7833;SDS011;3962;42.696;23.354;2023-07-31T07:42:17;5.00;;;4.80;;
7833;SDS011;3962;42.696;23.354;2023-07-31T07:44:44;4.83;;;4.63;;
7833;SDS011;3962;42.696;23.354;2023-07-31T07:47:11;5.27;;;5.07;;
7833;SDS011;3962;42.696;23.354;2023-07-31T07:49:39;4.87;;;4.67;;
7833;SDS011;3962;42.696;23.354;2023-07-31T07:52:12;4.50;;;4.30;;
7833;SDS011;3962;42.696;23.354;2023-07-31T07:54:39;5.80;;;5.43;;
7833;SDS011;3962;42.696;23.354;2023-07-31T07:57:05;5.33;;;4.93;;
7833;SDS011;3962;42.696;23.354;2023-07-31T07:59:34;5.43;;;5.13;;
7833;SDS011;3962;42.696;23.354;2023-07-31T08:02:00;5.30;;;5.00;;
7833;SDS011;3962;42.696;23.354;2023-07-31T08:04:27;4.83;;;4.53;;
7833;SDS011;3962;42.696;23.354;2023-07-31T08:06:54;5.30;;;5.10;;
7833;SDS011;3962;42.696;23.354;2023-07-31T08:09:21;4.87;;;4.67;;
7833;SDS011;3962;42.696;23.354;2023-07-31T08:11:48;5.43;;;5.13;;
7833;SDS011;3962;42.696;23.354;2023-07-31T08:14:14;5.47;;;5.00;;
7833;SDS011;3962;42.696;23.354;2023-07-31T08:16:43;5.50;;;5.20;;
7833;SDS011;3962;42.696;23.354;2023-07-31T08:19:09;5.87;;;5.40;;
7833;SDS011;3962;42.696;23.354;2023-07-31T08:21:38;5.50;;;5.30;;
7833;SDS011;3962;42.696;23.354;2023-07-31T08:24:05;5.60;;;5.30;;
7833;SDS011;3962;42.696;23.354;2023-07-31T08:26:33;4.93;;;4.73;;
7833;SDS011;3962;42.696;23.354;2023-07-31T08:28:59;4.93;;;4.73;;
7833;SDS011;3962;42.696;23.354;2023-07-31T08:31:26;3.90;;;3.70;;
7833;SDS011;3962;42.696;23.354;2023-07-31T08:33:55;5.33;;;5.13;;
7833;SDS011;3962;42.696;23.354;2023-07-31T08:36:23;5.20;;;4.90;;
7833;SDS011;3962;42.696;23.354;2023-07-31T08:38:49;5.30;;;5.00;;
7833;SDS011;3962;42.696;23.354;2023-07-31T08:41:16;4.60;;;4.40;;
7833;SDS011;3962;42.696;23.354;2023-07-31T08:43:43;5.37;;;4.97;;
7833;SDS011;3962;42.696;23.354;2023-07-31T08:46:11;5.70;;;5.40;;
7833;SDS011;3962;42.696;23.354;2023-07-31T08:48:41;5.27;;;4.90;;
7833;SDS011;3962;42.696;23.354;2023-07-31T08:51:10;4.93;;;4.73;;
7833;SDS011;3962;42.696;23.354;2023-07-31T08:53:37;4.90;;;4.70;;
7833;SDS011;3962;42.696;23.354;2023-07-31T08:56:04;4.90;;;4.70;;
7833;SDS011;3962;42.696;23.354;2023-07-31T08:58:32;4.83;;;4.63;;
7833;SDS011;3962;42.696;23.354;2023-07-31T09:01:01;5.43;;;5.17;;
7833;SDS011;3962;42.696;23.354;2023-07-31T09:03:31;5.97;;;5.67;;
7833;SDS011;3962;42.696;23.354;2023-07-31T09:06:00;4.70;;;4.50;;
7833;SDS011;3962;42.696;23.354;2023-07-31T09:08:32;4.40;;;4.20;;
7833;SDS011;3962;42.696;23.354;2023-07-31T09:11:00;4.63;;;4.43;;
7833;SDS011;3962;42.696;23.354;2023-07-31T09:13:29;4.07;;;3.87;;
7833;SDS011;3962;42.696;23.354;2023-07-31T09:15:56;4.70;;;4.50;;
7833;SDS011;3962;42.696;23.354;2023-07-31T09:18:23;4.83;;;4.63;;
7833;SDS011;3962;42.696;23.354;2023-07-31T09:21:00;3.40;;;3.30;;
7833;SDS011;3962;42.696;23.354;2023-07-31T09:23:27;4.47;;;4.27;;
7833;SDS011;3962;42.696;23.354;2023-07-31T09:26:09;3.50;;;3.40;;
7833;SDS011;3962;42.696;23.354;2023-07-31T09:28:36;3.67;;;3.57;;
7833;SDS011;3962;42.696;23.354;2023-07-31T09:31:03;4.20;;;4.00;;
7833;SDS011;3962;42.696;23.354;2023-07-31T09:33:30;3.73;;;3.63;;
7833;SDS011;3962;42.696;23.354;2023-07-31T09:35:58;4.37;;;4.17;;
7833;SDS011;3962;42.696;23.354;2023-07-31T09:38:25;3.97;;;3.77;;
7833;SDS011;3962;42.696;23.354;2023-07-31T09:40:54;3.87;;;3.77;;
7833;SDS011;3962;42.696;23.354;2023-07-31T09:43:21;3.57;;;3.47;;
7833;SDS011;3962;42.696;23.354;2023-07-31T09:45:54;4.07;;;3.97;;
7833;SDS011;3962;42.696;23.354;2023-07-31T09:48:23;4.23;;;4.10;;
7833;SDS011;3962;42.696;23.354;2023-07-31T09:50:52;4.67;;;4.47;;
7833;SDS011;3962;42.696;23.354;2023-07-31T09:53:19;4.03;;;3.83;;
7833;SDS011;3962;42.696;23.354;2023-07-31T09:55:56;4.73;;;4.53;;
7833;SDS011;3962;42.696;23.354;2023-07-31T09:58:24;4.03;;;3.83;;
7833;SDS011;3962;42.696;23.354;2023-07-31T10:00:54;4.37;;;4.17;;
7833;SDS011;3962;42.696;23.354;2023-07-31T10:03:24;4.10;;;3.90;;
7833;SDS011;3962;42.696;23.354;2023-07-31T10:05:53;3.83;;;3.73;;
7833;SDS011;3962;42.696;23.354;2023-07-31T10:08:23;4.43;;;4.23;;
7833;SDS011;3962;42.696;23.354;2023-07-31T10:10:59;4.47;;;4.27;;
7833;SDS011;3962;42.696;23.354;2023-07-31T10:13:27;5.37;;;5.13;;
7833;SDS011;3962;42.696;23.354;2023-07-31T10:15:56;4.53;;;4.33;;
7833;SDS011;3962;42.696;23.354;2023-07-31T10:18:25;4.33;;;4.13;;
7833;SDS011;3962;42.696;23.354;2023-07-31T10:20:54;3.70;;;3.60;;
7833;SDS011;3962;42.696;23.354;2023-07-31T10:23:22;3.53;;;3.43;;
7833;SDS011;3962;42.696;23.354;2023-07-31T10:25:50;3.80;;;3.67;;
7833;SDS011;3962;42.696;23.354;2023-07-31T10:28:24;4.30;;;4.10;;
7833;SDS011;3962;42.696;23.354;2023-07-31T10:30:55;4.83;;;4.63;;
7833;SDS011;3962;42.696;23.354;2023-07-31T10:33:22;4.17;;;3.97;;
7833;SDS011;3962;42.696;23.354;2023-07-31T10:35:49;3.53;;;3.43;;
7833;SDS011;3962;42.696;23.354;2023-07-31T10:38:18;3.83;;;3.63;;
7833;SDS011;3962;42.696;23.354;2023-07-31T10:40:45;3.63;;;3.53;;
7833;SDS011;3962;42.696;23.354;2023-07-31T10:43:24;4.30;;;4.10;;
7833;SDS011;3962;42.696;23.354;2023-07-31T10:45:52;3.93;;;3.73;;
7833;SDS011;3962;42.696;23.354;2023-07-31T10:48:20;3.70;;;3.60;;
7833;SDS011;3962;42.696;23.354;2023-07-31T10:50:48;4.10;;;3.73;;
7833;SDS011;3962;42.696;23.354;2023-07-31T10:53:22;4.37;;;4.17;;
7833;SDS011;3962;42.696;23.354;2023-07-31T10:55:49;4.03;;;3.83;;
7833;SDS011;3962;42.696;23.354;2023-07-31T10:58:18;3.73;;;3.53;;
7833;SDS011;3962;42.696;23.354;2023-07-31T11:00:47;3.97;;;3.77;;
7833;SDS011;3962;42.696;23.354;2023-07-31T11:03:15;3.80;;;3.70;;
7833;SDS011;3962;42.696;23.354;2023-07-31T11:05:44;4.13;;;3.87;;
7833;SDS011;3962;42.696;23.354;2023-07-31T11:08:16;3.93;;;3.73;;
7833;SDS011;3962;42.696;23.354;2023-07-31T11:10:44;3.40;;;3.30;;
7833;SDS011;3962;42.696;23.354;2023-07-31T11:13:12;4.43;;;4.23;;
7833;SDS011;3962;42.696;23.354;2023-07-31T11:15:40;3.40;;;3.30;;
7833;SDS011;3962;42.696;23.354;2023-07-31T11:18:08;4.47;;;4.17;;
7833;SDS011;3962;42.696;23.354;2023-07-31T11:20:36;4.00;;;3.87;;
7833;SDS011;3962;42.696;23.354;2023-07-31T11:23:07;4.00;;;3.80;;
7833;SDS011;3962;42.696;23.354;2023-07-31T11:25:37;3.50;;;3.40;;
7833;SDS011;3962;42.696;23.354;2023-07-31T11:28:07;4.03;;;3.83;;
7833;SDS011;3962;42.696;23.354;2023-07-31T11:30:35;3.70;;;3.60;;
7833;SDS011;3962;42.696;23.354;2023-07-31T11:33:03;3.77;;;3.57;;
7833;SDS011;3962;42.696;23.354;2023-07-31T11:35:32;4.27;;;4.07;;
7833;SDS011;3962;42.696;23.354;2023-07-31T11:38:01;3.70;;;3.50;;
7833;SDS011;3962;42.696;23.354;2023-07-31T11:40:29;4.00;;;3.80;;
7833;SDS011;3962;42.696;23.354;2023-07-31T11:42:56;4.63;;;4.43;;
7833;SDS011;3962;42.696;23.354;2023-07-31T11:45:26;3.83;;;3.63;;
7833;SDS011;3962;42.696;23.354;2023-07-31T11:47:54;4.00;;;3.80;;
7833;SDS011;3962;42.696;23.354;2023-07-31T11:50:23;4.30;;;4.10;;
7833;SDS011;3962;42.696;23.354;2023-07-31T11:52:54;4.53;;;4.33;;
7833;SDS011;3962;42.696;23.354;2023-07-31T11:55:25;4.40;;;4.20;;
7833;SDS011;3962;42.696;23.354;2023-07-31T11:57:54;4.33;;;4.13;;
7833;SDS011;3962;42.696;23.354;2023-07-31T12:00:23;3.57;;;3.47;;
7833;SDS011;3962;42.696;23.354;2023-07-31T12:02:51;3.50;;;3.40;;
7833;SDS011;3962;42.696;23.354;2023-07-31T12:05:19;5.93;;;3.87;;
7833;SDS011;3962;42.696;23.354;2023-07-31T12:07:49;4.27;;;4.07;;
7833;SDS011;3962;42.696;23.354;2023-07-31T12:10:25;4.10;;;3.90;;
7833;SDS011;3962;42.696;23.354;2023-07-31T12:12:58;3.73;;;3.63;;
7833;SDS011;3962;42.696;23.354;2023-07-31T12:15:33;3.83;;;3.73;;
7833;SDS011;3962;42.696;23.354;2023-07-31T12:18:05;4.17;;;3.97;;
7833;SDS011;3962;42.696;23.354;2023-07-31T12:20:33;4.17;;;4.00;;
7833;SDS011;3962;42.696;23.354;2023-07-31T12:23:01;3.73;;;3.57;;
7833;SDS011;3962;42.696;23.354;2023-07-31T12:25:30;3.53;;;3.43;;
7833;SDS011;3962;42.696;23.354;2023-07-31T12:28:07;3.37;;;3.27;;
7833;SDS011;3962;42.696;23.354;2023-07-31T12:30:37;3.77;;;3.67;;
7833;SDS011;3962;42.696;23.354;2023-07-31T12:33:05;3.40;;;3.30;;
7833;SDS011;3962;42.696;23.354;2023-07-31T12:35:36;4.17;;;4.03;;
7833;SDS011;3962;42.696;23.354;2023-07-31T12:38:04;4.13;;;3.97;;
7833;SDS011;3962;42.696;23.354;2023-07-31T12:40:32;4.67;;;4.47;;
7833;SDS011;3962;42.696;23.354;2023-07-31T12:43:00;4.20;;;4.00;;
7833;SDS011;3962;42.696;23.354;2023-07-31T12:45:28;4.03;;;3.90;;
7833;SDS011;3962;42.696;23.354;2023-07-31T12:47:58;4.57;;;4.37;;
7833;SDS011;3962;42.696;23.354;2023-07-31T12:50:25;4.13;;;3.93;;
7833;SDS011;3962;42.696;23.354;2023-07-31T12:52:53;3.80;;;3.60;;
7833;SDS011;3962;42.696;23.354;2023-07-31T12:55:20;4.63;;;4.43;;
7833;SDS011;3962;42.696;23.354;2023-07-31T12:57:49;3.70;;;3.60;;
7833;SDS011;3962;42.696;23.354;2023-07-31T13:00:17;4.67;;;4.47;;
7833;SDS011;3962;42.696;23.354;2023-07-31T13:02:43;3.90;;;3.70;;
7833;SDS011;3962;42.696;23.354;2023-07-31T13:05:10;4.60;;;4.40;;
7833;SDS011;3962;42.696;23.354;2023-07-31T13:07:39;4.40;;;4.20;;
7833;SDS011;3962;42.696;23.354;2023-07-31T13:10:07;3.83;;;3.73;;
7833;SDS011;3962;42.696;23.354;2023-07-31T13:12:34;4.33;;;4.13;;
7833;SDS011;3962;42.696;23.354;2023-07-31T13:15:10;4.53;;;4.33;;
7833;SDS011;3962;42.696;23.354;2023-07-31T13:17:38;4.40;;;4.10;;
7833;SDS011;3962;42.696;23.354;2023-07-31T13:20:06;4.50;;;4.30;;
7833;SDS011;3962;42.696;23.354;2023-07-31T13:22:34;4.23;;;4.03;;
7833;SDS011;3962;42.696;23.354;2023-07-31T13:25:04;4.00;;;3.80;;
7833;SDS011;3962;42.696;23.354;2023-07-31T13:27:32;3.97;;;3.87;;
7833;SDS011;3962;42.696;23.354;2023-07-31T13:29:58;4.13;;;4.03;;
7833;SDS011;3962;42.696;23.354;2023-07-31T13:32:27;4.33;;;4.13;;
7833;SDS011;3962;42.696;23.354;2023-07-31T13:34:54;3.90;;;3.70;;
7833;SDS011;3962;42.696;23.354;2023-07-31T13:37:21;3.30;;;3.20;;
7833;SDS011;3962;42.696;23.354;2023-07-31T13:39:47;4.50;;;4.30;;
7833;SDS011;3962;42.696;23.354;2023-07-31T13:42:14;3.50;;;3.40;;
7833;SDS011;3962;42.696;23.354;2023-07-31T13:44:41;4.23;;;4.03;;
7833;SDS011;3962;42.696;23.354;2023-07-31T13:47:09;3.53;;;3.43;;
7833;SDS011;3962;42.696;23.354;2023-07-31T13:49:39;4.20;;;4.00;;
7833;SDS011;3962;42.696;23.354;2023-07-31T13:52:08;3.43;;;3.33;;
7833;SDS011;3962;42.696;23.354;2023-07-31T13:54:35;3.63;;;3.53;;
7833;SDS011;3962;42.696;23.354;2023-07-31T13:57:02;4.33;;;4.13;;
7833;SDS011;3962;42.696;23.354;2023-07-31T13:59:29;3.60;;;3.50;;
7833;SDS011;3962;42.696;23.354;2023-07-31T14:01:56;4.07;;;3.87;;
7833;SDS011;3962;42.696;23.354;2023-07-31T14:04:23;3.80;;;3.70;;
7833;SDS011;3962;42.696;23.354;2023-07-31T14:06:51;4.20;;;4.00;;
7833;SDS011;3962;42.696;23.354;2023-07-31T14:09:19;3.90;;;3.80;;
7833;SDS011;3962;42.696;23.354;2023-07-31T14:11:47;4.43;;;4.23;;
7833;SDS011;3962;42.696;23.354;2023-07-31T14:14:17;3.87;;;3.67;;
7833;SDS011;3962;42.696;23.354;2023-07-31T14:16:44;3.17;;;3.07;;
7833;SDS011;3962;42.696;23.354;2023-07-31T14:19:11;3.60;;;3.50;;
7833;SDS011;3962;42.696;23.354;2023-07-31T14:21:38;4.33;;;4.13;;
7833;SDS011;3962;42.696;23.354;2023-07-31T14:24:06;3.67;;;3.57;;
7833;SDS011;3962;42.696;23.354;2023-07-31T14:26:33;4.43;;;4.23;;
7833;SDS011;3962;42.696;23.354;2023-07-31T14:29:00;4.67;;;4.47;;
7833;SDS011;3962;42.696;23.354;2023-07-31T14:31:27;4.13;;;3.93;;
7833;SDS011;3962;42.696;23.354;2023-07-31T14:33:54;4.63;;;4.43;;
7833;SDS011;3962;42.696;23.354;2023-07-31T14:36:21;4.10;;;3.90;;
7833;SDS011;3962;42.696;23.354;2023-07-31T14:38:48;4.33;;;4.13;;
7833;SDS011;3962;42.696;23.354;2023-07-31T14:41:16;4.93;;;4.73;;
7833;SDS011;3962;42.696;23.354;2023-07-31T14:43:43;4.77;;;4.57;;
7833;SDS011;3962;42.696;23.354;2023-07-31T14:46:10;4.13;;;3.93;;
7833;SDS011;3962;42.696;23.354;2023-07-31T14:48:37;3.30;;;3.20;;
7833;SDS011;3962;42.696;23.354;2023-07-31T14:51:03;4.27;;;4.07;;
7833;SDS011;3962;42.696;23.354;2023-07-31T14:53:30;3.40;;;3.30;;
7833;SDS011;3962;42.696;23.354;2023-07-31T14:55:57;4.33;;;4.13;;
7833;SDS011;3962;42.696;23.354;2023-07-31T14:58:25;4.03;;;3.93;;
7833;SDS011;3962;42.696;23.354;2023-07-31T15:00:52;3.90;;;3.70;;
7833;SDS011;3962;42.696;23.354;2023-07-31T15:03:19;4.07;;;3.87;;
7833;SDS011;3962;42.696;23.354;2023-07-31T15:05:46;3.77;;;3.67;;